ENMS  Mosjøen Airport, Kjærstad Airport

Add Bookmark

Norway

Status IATA
Operational MJF
Latitude Longitude
65° 47' 2" N 13° 12' 53" E
65.783997 13.214900
Local (DST + 2) UTC (GMT + 1)
Aug 28, 2014 12:59 Aug 27, 2014 22:59
Sunrise-Sunset Local UTC
Begin Civil Twilight 04:28 02:28
Sunrise 05:29 03:29
Sunset 08:47 18:47
End Civil Twilight 09:47 19:47

Current Weather

METAR Observed VFR
ENMS 272050Z VRB01KT 9999 FEW050 08/06 Q1015 Wed, Aug 27, 2014 @ 20:50 UTC
(2 Hours, 9 Minutes ago)
Visual Flight Rules
Wind Visibility Clouds Conditions
Varies at 1 kt (2 kph) 10 km or more
  • Few at 5,000' AGL
  • No significant weather
Temperatures Readings Precipitation
Current Temp 8°C (46°F)
Dewpoint 6°C (43°F)
Humidity 87%
Altimeter 29.97"Hg
Sea Level Pressure 1015mb
Field Elevation 229.66'
None Recorded

Additional weather within a 92.6km radius of ENMS

Map ICAO Location
ENST 38.9km W (300°)
ENBN 58.2km S (232°)
ENRA 80.9km N (037°)
ESUT 85.2km E (087°)

24 Hour Weather History

Loading
-

24 Hour Weather Graphs

Loading
-

CheckWX.com is intended as a tool to help pilots better visualize weather data. It is not intended as a substitute for an official weather briefing obtained from a Flight Service Station. CheckWX.com does not meet the FAA requirements for an official pre-flight weather briefing. Therefore, it's important that pilots still call and obtain an official FSS pre-flight weather briefing.